createdAt,value
2019-04-03T00:01:12.797Z,6.30
2019-04-03T00:03:44.381Z,6.73
2019-04-03T00:06:14.870Z,7.03
2019-04-03T00:08:45.514Z,7.17
2019-04-03T00:11:16.224Z,6.80
2019-04-03T00:13:46.720Z,7.07
2019-04-03T00:16:18.398Z,6.53
2019-04-03T00:18:48.992Z,6.80
2019-04-03T00:21:20.249Z,7.20
2019-04-03T00:23:52.649Z,6.87
2019-04-03T00:26:23.328Z,7.13
2019-04-03T00:28:53.786Z,7.30
2019-04-03T00:31:24.253Z,7.33
2019-04-03T00:33:54.940Z,7.20
2019-04-03T00:36:26.510Z,8.23
2019-04-03T00:38:57.106Z,8.50
2019-04-03T00:41:27.765Z,8.33
2019-04-03T00:43:58.360Z,7.90
2019-04-03T00:46:28.988Z,8.00
2019-04-03T00:48:59.629Z,8.20
2019-04-03T00:51:30.151Z,8.37
2019-04-03T00:54:00.780Z,7.87
2019-04-03T00:56:32.331Z,7.67
2019-04-03T00:59:02.845Z,8.10
2019-04-03T01:01:33.394Z,8.10
2019-04-03T01:04:04.180Z,8.47
2019-04-03T01:06:34.941Z,8.10
2019-04-03T01:09:07.240Z,7.77
2019-04-03T01:11:37.819Z,7.40
2019-04-03T01:14:08.297Z,8.17
2019-04-03T01:16:38.868Z,7.67
2019-04-03T01:19:09.450Z,8.03
2019-04-03T01:21:40.143Z,7.43
2019-04-03T01:24:10.777Z,7.37
2019-04-03T01:26:41.308Z,7.50
2019-04-03T01:29:12.584Z,7.03
2019-04-03T01:31:44.924Z,7.90
2019-04-03T01:34:17.820Z,7.10
2019-04-03T01:36:48.657Z,7.20
2019-04-03T01:39:21.075Z,6.70
2019-04-03T01:41:52.076Z,7.30
2019-04-03T01:44:24.787Z,7.33
2019-04-03T01:46:57.307Z,7.10
2019-04-03T01:49:28.399Z,7.20
2019-04-03T01:52:00.836Z,7.10
2019-04-03T01:54:33.281Z,7.50
2019-04-03T01:57:06.005Z,7.30
2019-04-03T01:59:37.540Z,7.20
2019-04-03T02:02:09.703Z,7.40
2019-04-03T02:04:41.987Z,7.40
2019-04-03T02:07:14.889Z,7.20
2019-04-03T02:09:46.598Z,7.10
2019-04-03T02:12:17.949Z,7.63
2019-04-03T02:14:51.562Z,7.17
2019-04-03T02:17:24.188Z,8.00
2019-04-03T02:19:56.372Z,7.13
2019-04-03T02:22:29.224Z,7.30
2019-04-03T02:25:01.887Z,6.83
2019-04-03T02:27:33.273Z,7.30
2019-04-03T02:30:05.408Z,7.27
2019-04-03T02:32:36.225Z,7.33
2019-04-03T02:35:09.533Z,7.10
2019-04-03T02:37:40.039Z,7.17
2019-04-03T02:40:11.023Z,6.97
2019-04-03T02:42:42.430Z,7.27
2019-04-03T02:45:14.575Z,7.10
2019-04-03T02:47:45.508Z,7.67
2019-04-03T02:50:23.631Z,7.10
2019-04-03T02:52:57.994Z,6.93
2019-04-03T02:55:28.964Z,7.40
2019-04-03T02:57:59.586Z,6.77
2019-04-03T03:00:33.152Z,7.90
2019-04-03T03:03:02.825Z,7.17
2019-04-03T03:05:33.478Z,7.13
2019-04-03T03:08:04.103Z,7.67
2019-04-03T03:10:34.852Z,7.20
2019-04-03T03:13:05.518Z,7.00
2019-04-03T03:15:36.882Z,7.23
2019-04-03T03:18:07.462Z,6.80
2019-04-03T03:20:40.825Z,7.10
2019-04-03T03:23:12.229Z,7.37
2019-04-03T03:25:43.296Z,7.03
2019-04-03T03:28:15.485Z,7.20
2019-04-03T03:30:57.878Z,7.80
2019-04-03T03:33:29.837Z,7.07
2019-04-03T03:35:53.986Z,7.37
2019-04-03T03:38:27.792Z,7.37
2019-04-03T03:40:57.758Z,7.33
2019-04-03T03:43:28.799Z,7.07
2019-04-03T03:46:00.085Z,7.27
2019-04-03T03:48:30.877Z,6.77
2019-04-03T03:51:03.373Z,7.50
2019-04-03T03:53:34.622Z,7.60
2019-04-03T03:56:06.558Z,7.40
2019-04-03T03:58:37.863Z,7.30
2019-04-03T04:01:08.752Z,7.30
2019-04-03T04:03:41.896Z,7.17
2019-04-03T04:06:13.597Z,6.77
2019-04-03T04:08:45.384Z,7.47
2019-04-03T04:11:16.488Z,6.90
2019-04-03T04:13:48.513Z,6.83
2019-04-03T04:16:23.151Z,7.10
2019-04-03T04:18:57.224Z,6.77
2019-04-03T04:21:27.045Z,7.50
2019-04-03T04:23:57.895Z,6.57
2019-04-03T04:26:31.278Z,6.97
2019-04-03T04:29:01.215Z,7.27
2019-04-03T04:31:33.037Z,7.00
2019-04-03T04:34:04.159Z,7.00
2019-04-03T04:36:34.877Z,7.40
2019-04-03T04:39:07.932Z,6.47
2019-04-03T04:41:38.657Z,6.77
2019-04-03T04:44:09.956Z,7.23
2019-04-03T04:46:43.691Z,7.47
2019-04-03T04:49:13.511Z,7.23
2019-04-03T04:51:45.048Z,7.30
2019-04-03T04:54:15.737Z,7.30
2019-04-03T04:56:49.236Z,7.67
2019-04-03T04:59:19.844Z,6.73
2019-04-03T05:01:50.613Z,7.60
2019-04-03T05:04:23.278Z,6.73
2019-04-03T05:06:54.169Z,7.17
2019-04-03T05:09:25.239Z,7.27
2019-04-03T05:11:56.339Z,6.83
2019-04-03T05:14:27.199Z,7.37
2019-04-03T05:16:58.109Z,7.37
2019-04-03T05:19:30.823Z,7.30
2019-04-03T05:22:01.508Z,7.27
2019-04-03T05:24:32.113Z,7.80
2019-04-03T05:27:03.403Z,7.87
2019-04-03T05:29:35.602Z,7.17
2019-04-03T05:32:06.519Z,7.70
2019-04-03T05:34:38.773Z,7.10
2019-04-03T05:37:11.457Z,8.10
2019-04-03T05:39:41.736Z,8.07
2019-04-03T05:42:12.317Z,8.00
2019-04-03T05:44:43.890Z,7.77
2019-04-03T05:47:14.966Z,8.17
2019-04-03T05:49:47.107Z,7.50
2019-04-03T05:52:17.915Z,7.93
2019-04-03T05:54:48.926Z,8.83
2019-04-03T05:57:19.779Z,7.87
2019-04-03T05:59:59.825Z,8.97
2019-04-03T06:02:22.987Z,8.20
2019-04-03T06:04:54.048Z,7.97
2019-04-03T06:07:24.965Z,8.60
2019-04-03T06:09:58.437Z,8.97
2019-04-03T06:12:28.254Z,7.83
2019-04-03T06:14:59.789Z,8.27
2019-04-03T06:17:31.838Z,9.77
2019-04-03T06:20:03.228Z,8.80
2019-04-03T06:22:33.818Z,9.20
2019-04-03T06:25:04.889Z,8.70
2019-04-03T06:27:35.624Z,8.70
2019-04-03T06:30:07.364Z,8.93
2019-04-03T06:32:38.177Z,8.97
2019-04-03T06:35:09.037Z,9.20
2019-04-03T06:37:41.618Z,8.40
2019-04-03T06:40:13.176Z,9.00
2019-04-03T06:42:45.620Z,8.77
2019-04-03T06:45:16.371Z,8.90
2019-04-03T06:47:46.975Z,8.43
2019-04-03T06:50:17.953Z,7.97
2019-04-03T06:52:53.025Z,8.63
2019-04-03T06:55:25.336Z,9.27
2019-04-03T06:57:56.508Z,9.23
2019-04-03T07:00:27.098Z,8.83
2019-04-03T07:03:03.973Z,8.80
2019-04-03T07:05:35.226Z,8.70
2019-04-03T07:08:06.147Z,8.53
2019-04-03T07:10:40.176Z,8.70
2019-04-03T07:13:09.970Z,8.43
2019-04-03T07:15:40.658Z,9.20
2019-04-03T07:18:11.503Z,8.47
2019-04-03T07:20:45.717Z,9.07
2019-04-03T07:23:16.714Z,8.77
2019-04-03T07:25:47.455Z,9.23
2019-04-03T07:28:18.052Z,8.93
2019-04-03T07:30:48.658Z,8.57
2019-04-03T07:33:19.726Z,8.67
2019-04-03T07:35:50.488Z,9.20
2019-04-03T07:38:22.218Z,8.63
2019-04-03T07:40:53.466Z,9.20
2019-04-03T07:43:26.350Z,9.17
2019-04-03T07:45:56.389Z,8.43
2019-04-03T07:48:27.320Z,9.40
2019-04-03T07:50:58.263Z,8.60
2019-04-03T07:53:29.144Z,8.73
2019-04-03T07:55:59.920Z,9.60
2019-04-03T07:58:31.608Z,8.80
2019-04-03T08:01:02.785Z,8.90
2019-04-03T08:03:34.976Z,8.97
2019-04-03T08:06:05.724Z,9.23
2019-04-03T08:08:37.193Z,9.40
2019-04-03T08:11:07.976Z,9.23
2019-04-03T08:13:38.777Z,9.50
2019-04-03T08:16:09.366Z,8.90
2019-04-03T08:18:40.971Z,9.40
2019-04-03T08:21:11.531Z,9.57
2019-04-03T08:23:42.080Z,9.40
2019-04-03T08:26:12.722Z,8.60
2019-04-03T08:28:43.618Z,9.17
2019-04-03T08:31:14.376Z,9.27
2019-04-03T08:33:45.226Z,9.67
2019-04-03T08:36:24.063Z,8.83
2019-04-03T08:38:48.727Z,9.67
2019-04-03T08:41:19.908Z,9.23
2019-04-03T08:43:50.756Z,9.57
2019-04-03T08:46:21.583Z,9.27
2019-04-03T08:48:54.312Z,8.83
2019-04-03T08:51:24.888Z,9.10
2019-04-03T08:53:55.677Z,8.43
2019-04-03T08:56:27.511Z,8.83
2019-04-03T08:58:59.303Z,8.97
2019-04-03T09:01:37.045Z,9.13
2019-04-03T09:04:10.110Z,8.77
2019-04-03T09:06:41.388Z,8.87
2019-04-03T09:09:12.718Z,8.57
2019-04-03T09:11:43.558Z,8.33
2019-04-03T09:14:14.239Z,8.07
2019-04-03T09:16:44.985Z,8.07
2019-04-03T09:19:16.847Z,8.23
2019-04-03T09:21:51.006Z,8.33
2019-04-03T09:24:20.571Z,8.70
2019-04-03T09:26:51.296Z,8.23
2019-04-03T09:29:21.929Z,8.33
2019-04-03T09:31:55.872Z,8.60
2019-04-03T09:34:25.127Z,6.93
2019-04-03T09:36:55.858Z,8.00
2019-04-03T09:39:26.748Z,8.13
2019-04-03T09:41:59.850Z,7.90
2019-04-03T09:44:30.907Z,7.07
2019-04-03T09:47:03.438Z,7.70
2019-04-03T09:49:34.552Z,7.80
2019-04-03T09:52:05.281Z,7.57
2019-04-03T09:54:36.091Z,7.97
2019-04-03T09:57:06.707Z,7.80
2019-04-03T09:59:37.801Z,6.83
2019-04-03T10:02:09.526Z,7.97
2019-04-03T10:04:40.324Z,7.30
2019-04-03T10:07:10.982Z,7.60
2019-04-03T10:09:44.017Z,7.43
2019-04-03T10:12:14.965Z,7.37
2019-04-03T10:14:46.114Z,7.57
2019-04-03T10:17:17.572Z,7.33
2019-04-03T10:19:48.751Z,7.70
2019-04-03T10:22:19.696Z,7.33
2019-04-03T10:24:50.348Z,7.00
2019-04-03T10:27:21.359Z,7.27
2019-04-03T10:29:55.017Z,7.47
2019-04-03T10:32:27.182Z,8.10
2019-04-03T10:34:57.844Z,7.37
2019-04-03T10:37:29.889Z,7.07
2019-04-03T10:40:00.615Z,6.47
2019-04-03T10:42:31.871Z,7.07
2019-04-03T10:45:02.788Z,7.70
2019-04-03T10:47:41.625Z,8.33
2019-04-03T10:50:07.306Z,7.77
2019-04-03T10:52:38.143Z,8.07
2019-04-03T10:55:09.347Z,6.80
2019-04-03T10:57:40.326Z,7.60
2019-04-03T11:00:13.467Z,7.13
2019-04-03T11:02:44.316Z,7.63
2019-04-03T11:05:16.195Z,6.87
2019-04-03T11:07:48.282Z,7.13
2019-04-03T11:10:19.408Z,7.40
2019-04-03T11:12:50.116Z,7.23
2019-04-03T11:15:21.227Z,7.30
2019-04-03T11:17:51.876Z,7.00
2019-04-03T11:20:22.998Z,7.23
2019-04-03T11:23:05.387Z,7.40
2019-04-03T11:25:31.696Z,7.03
2019-04-03T11:28:05.023Z,7.40
2019-04-03T11:30:36.181Z,7.47
2019-04-03T11:33:07.436Z,7.57
2019-04-03T11:35:38.154Z,7.43
2019-04-03T11:38:20.981Z,7.50
2019-04-03T11:40:45.689Z,7.47
2019-04-03T11:43:17.951Z,7.70
2019-04-03T11:45:48.788Z,7.60
2019-04-03T11:48:27.300Z,7.60
2019-04-03T11:50:57.690Z,7.40
2019-04-03T11:53:33.049Z,7.43
2019-04-03T11:56:13.149Z,7.13
2019-04-03T11:58:43.269Z,7.80
2019-04-03T12:01:16.235Z,7.57
2019-04-03T12:03:48.285Z,7.63
2019-04-03T12:06:20.883Z,7.50
2019-04-03T12:08:51.783Z,7.83
2019-04-03T12:11:23.918Z,8.03
2019-04-03T12:13:57.661Z,7.17
2019-04-03T12:16:28.472Z,7.03
2019-04-03T12:18:59.166Z,8.53
2019-04-03T12:21:30.168Z,7.57
2019-04-03T12:24:01.122Z,7.60
2019-04-03T12:26:33.046Z,7.80
2019-04-03T12:29:07.722Z,6.93
2019-04-03T12:31:42.299Z,6.80
2019-04-03T12:34:17.330Z,7.63
2019-04-03T12:36:48.252Z,7.13
2019-04-03T12:39:29.702Z,6.72
2019-04-03T12:42:02.559Z,7.00
2019-04-03T12:44:33.236Z,7.33
2019-04-03T12:47:07.029Z,6.95
2019-04-03T12:49:36.367Z,7.50
2019-04-03T12:52:07.480Z,6.67
2019-04-03T12:54:38.085Z,7.53
2019-04-03T12:57:08.864Z,7.12
2019-04-03T12:59:40.045Z,6.57
2019-04-03T13:02:11.538Z,6.50
2019-04-03T13:04:43.659Z,7.10
2019-04-03T13:07:14.616Z,6.58
2019-04-03T13:09:45.663Z,6.87
2019-04-03T13:12:16.501Z,7.00
2019-04-03T13:14:49.064Z,7.40
2019-04-03T13:17:19.544Z,7.00
2019-04-03T13:19:51.919Z,6.65
2019-04-03T13:22:22.637Z,7.28
2019-04-03T13:24:53.413Z,6.87
2019-04-03T13:27:23.935Z,6.50
2019-04-03T13:29:54.710Z,6.83
2019-04-03T13:32:26.026Z,6.20
2019-04-03T13:34:57.156Z,7.30
2019-04-03T13:37:27.976Z,6.93
2019-04-03T13:40:01.669Z,7.03
2019-04-03T13:42:33.633Z,8.07
2019-04-03T13:45:05.045Z,7.20
2019-04-03T13:47:41.106Z,7.07
2019-04-03T13:50:12.662Z,7.00
2019-04-03T13:52:47.992Z,6.60
2019-04-03T13:55:16.474Z,6.70
2019-04-03T13:57:50.837Z,6.80
2019-04-03T14:00:23.657Z,7.27
2019-04-03T14:02:58.240Z,7.00
2019-04-03T14:05:32.244Z,7.00
2019-04-03T14:08:01.474Z,7.50
2019-04-03T14:10:34.150Z,6.60
2019-04-03T14:13:04.830Z,6.50
2019-04-03T14:15:35.721Z,7.07
2019-04-03T14:18:07.816Z,7.43
2019-04-03T14:20:39.228Z,7.23
2019-04-03T14:23:10.018Z,7.33
2019-04-03T14:25:40.907Z,7.37
2019-04-03T14:28:12.920Z,7.20
2019-04-03T14:30:45.209Z,7.80
2019-04-03T14:33:18.317Z,7.40
2019-04-03T14:35:52.534Z,7.70
2019-04-03T14:38:21.162Z,7.93
2019-04-03T14:40:51.766Z,7.40
2019-04-03T14:43:22.853Z,7.30
2019-04-03T14:45:53.846Z,7.83
2019-04-03T14:48:26.199Z,7.20
2019-04-03T14:51:00.337Z,7.40
2019-04-03T14:53:31.290Z,7.73
2019-04-03T14:56:06.326Z,7.53
2019-04-03T14:58:37.211Z,7.20
2019-04-03T15:01:08.148Z,7.57
2019-04-03T15:03:39.368Z,7.17
2019-04-03T15:06:10.396Z,6.77
2019-04-03T15:08:45.120Z,7.63
2019-04-03T15:11:15.745Z,7.27
2019-04-03T15:13:48.877Z,7.23
2019-04-03T15:16:22.149Z,7.00
2019-04-03T15:18:54.006Z,7.53
2019-04-03T15:21:29.840Z,7.70
2019-04-03T15:24:01.026Z,7.33
2019-04-03T15:26:37.367Z,7.70
2019-04-03T15:29:09.474Z,7.60
2019-04-03T15:31:46.983Z,7.60
2019-04-03T15:34:17.501Z,6.80
2019-04-03T15:36:50.589Z,7.73
2019-04-03T15:39:20.502Z,8.47
2019-04-03T15:41:51.730Z,7.60
2019-04-03T15:44:27.470Z,7.70
2019-04-03T15:47:01.171Z,7.30
2019-04-03T15:49:33.016Z,7.80
2019-04-03T15:52:03.838Z,7.10
2019-04-03T15:54:34.703Z,7.83
2019-04-03T15:57:05.792Z,7.33
2019-04-03T15:59:36.651Z,8.00
2019-04-03T16:02:09.063Z,7.80
2019-04-03T16:04:39.756Z,7.73
2019-04-03T16:07:10.719Z,7.63
2019-04-03T16:09:47.703Z,8.10
2019-04-03T16:12:19.058Z,8.03
2019-04-03T16:14:51.125Z,8.83
2019-04-03T16:17:22.649Z,8.53
2019-04-03T16:19:53.529Z,8.37
2019-04-03T16:22:24.815Z,8.57
2019-04-03T16:24:55.687Z,7.83
2019-04-03T16:27:29.135Z,9.00
2019-04-03T16:29:58.815Z,8.13
2019-04-03T16:32:29.579Z,8.43
2019-04-03T16:35:01.368Z,8.13
2019-04-03T16:37:32.515Z,8.30
2019-04-03T16:40:04.956Z,8.07
2019-04-03T16:42:37.059Z,9.30
2019-04-03T16:45:09.370Z,8.43
2019-04-03T16:47:40.348Z,8.63
2019-04-03T16:50:15.400Z,7.97
2019-04-03T16:52:47.370Z,8.23
2019-04-03T16:55:26.198Z,7.97
2019-04-03T16:57:57.366Z,8.47
2019-04-03T17:00:31.655Z,10.33
2019-04-03T17:03:02.426Z,9.73
2019-04-03T17:05:33.499Z,8.87
2019-04-03T17:08:05.085Z,9.17
2019-04-03T17:10:35.731Z,11.37
2019-04-03T17:13:06.481Z,9.93
2019-04-03T17:15:40.744Z,10.40
2019-04-03T17:18:11.734Z,10.27
2019-04-03T17:20:42.889Z,10.90
2019-04-03T17:23:13.704Z,10.93
2019-04-03T17:25:48.439Z,11.90
2019-04-03T17:28:16.780Z,12.57
2019-04-03T17:30:49.901Z,13.33
2019-04-03T17:33:20.590Z,12.47
2019-04-03T17:35:52.123Z,12.17
2019-04-03T17:38:23.235Z,12.40
2019-04-03T17:40:54.073Z,11.40
2019-04-03T17:43:24.798Z,11.17
2019-04-03T17:45:55.616Z,10.70
2019-04-03T17:48:26.389Z,9.87
2019-04-03T17:50:56.931Z,9.10
2019-04-03T17:53:27.631Z,9.13
2019-04-03T17:55:58.336Z,8.90
2019-04-03T17:58:29.495Z,9.23
2019-04-03T18:01:00.396Z,10.57
2019-04-03T18:03:31.575Z,9.30
2019-04-03T18:06:02.435Z,9.03
2019-04-03T18:08:33.198Z,9.80
2019-04-03T18:11:03.893Z,9.20
2019-04-03T18:13:34.569Z,9.93
2019-04-03T18:16:05.556Z,9.90
2019-04-03T18:18:36.269Z,10.30
2019-04-03T18:21:08.048Z,9.43
2019-04-03T18:23:38.652Z,10.07
2019-04-03T18:26:09.335Z,9.47
2019-04-03T18:28:40.269Z,10.17
2019-04-03T18:31:11.841Z,9.67
2019-04-03T18:33:43.671Z,10.33
2019-04-03T18:36:14.549Z,10.97
2019-04-03T18:38:45.189Z,12.13
2019-04-03T18:41:16.993Z,11.47
2019-04-03T18:43:48.177Z,11.50
2019-04-03T18:46:31.513Z,11.40
2019-04-03T18:48:58.744Z,12.63
2019-04-03T18:51:26.077Z,10.87
2019-04-03T18:53:59.366Z,11.27
2019-04-03T18:56:32.014Z,12.73
2019-04-03T18:59:04.809Z,11.73
2019-04-03T19:01:37.983Z,12.10
2019-04-03T19:04:08.585Z,12.47
2019-04-03T19:06:39.294Z,12.27
2019-04-03T19:09:10.483Z,12.00
2019-04-03T19:11:41.588Z,12.90
2019-04-03T19:14:26.089Z,12.70
2019-04-03T19:16:51.394Z,12.87
2019-04-03T19:19:22.967Z,13.13
2019-04-03T19:21:55.264Z,12.90
2019-04-03T19:24:27.055Z,12.27
2019-04-03T19:26:58.561Z,12.20
2019-04-03T19:29:35.785Z,13.30
2019-04-03T19:32:11.943Z,13.37
2019-04-03T19:34:42.012Z,11.90
2019-04-03T19:37:14.557Z,12.40
2019-04-03T19:39:49.041Z,12.70
2019-04-03T19:42:21.819Z,13.07
2019-04-03T19:44:52.760Z,12.80
2019-04-03T19:47:24.659Z,12.33
2019-04-03T19:50:00.230Z,12.80
2019-04-03T19:52:30.491Z,13.13
2019-04-03T19:55:01.374Z,13.13
2019-04-03T19:57:32.308Z,12.97
2019-04-03T20:00:03.872Z,13.27
2019-04-03T20:02:37.802Z,13.30
2019-04-03T20:05:08.547Z,13.50
2019-04-03T20:07:39.561Z,13.03
2019-04-03T20:10:11.823Z,13.17
2019-04-03T20:12:42.548Z,13.03
2019-04-03T20:15:13.245Z,12.17
2019-04-03T20:17:44.086Z,12.67
2019-04-03T20:20:14.764Z,12.00
2019-04-03T20:22:45.422Z,12.70
2019-04-03T20:25:15.955Z,12.33
2019-04-03T20:27:47.355Z,11.97
2019-04-03T20:30:18.805Z,12.07
2019-04-03T20:32:49.337Z,12.23
2019-04-03T20:35:19.952Z,12.20
2019-04-03T20:37:50.507Z,11.63
2019-04-03T20:40:21.288Z,12.20
2019-04-03T20:42:53.931Z,12.10
2019-04-03T20:45:24.745Z,12.43
2019-04-03T20:47:57.384Z,12.20
2019-04-03T20:50:30.660Z,11.93
2019-04-03T20:53:01.298Z,12.10
2019-04-03T20:55:32.033Z,11.60
2019-04-03T20:58:05.715Z,12.27
2019-04-03T21:00:35.056Z,11.23
2019-04-03T21:03:05.689Z,11.97
2019-04-03T21:05:36.309Z,11.63
2019-04-03T21:08:07.194Z,12.27
2019-04-03T21:10:37.877Z,11.73
2019-04-03T21:13:08.750Z,11.87
2019-04-03T21:15:39.859Z,11.93
2019-04-03T21:18:13.330Z,11.87
2019-04-03T21:20:43.924Z,12.40
2019-04-03T21:23:14.707Z,11.83
2019-04-03T21:25:45.291Z,11.60
2019-04-03T21:28:16.138Z,11.77
2019-04-03T21:30:46.831Z,12.03
2019-04-03T21:33:17.679Z,12.50
2019-04-03T21:35:48.490Z,12.63
2019-04-03T21:38:19.010Z,11.60
2019-04-03T21:40:49.516Z,11.67
2019-04-03T21:43:20.221Z,11.97
2019-04-03T21:45:50.916Z,11.47
2019-04-03T21:48:22.578Z,12.27
2019-04-03T21:50:52.990Z,12.40
2019-04-03T21:53:24.379Z,11.80
2019-04-03T21:55:55.680Z,11.47
2019-04-03T21:58:26.179Z,12.27
2019-04-03T22:01:23.417Z,12.27
2019-04-03T22:03:54.306Z,11.10
2019-04-03T22:06:26.987Z,11.77
2019-04-03T22:09:00.479Z,12.43
2019-04-03T22:11:30.397Z,11.80
2019-04-03T22:14:00.688Z,12.00
2019-04-03T22:16:31.222Z,11.60
2019-04-03T22:19:01.790Z,12.03
2019-04-03T22:21:32.998Z,11.53
2019-04-03T22:24:06.584Z,12.13
2019-04-03T22:26:36.032Z,12.37
2019-04-03T22:29:06.723Z,12.07
2019-04-03T22:31:37.360Z,11.80
2019-04-03T22:34:08.135Z,11.40
2019-04-03T22:36:38.758Z,12.17
2019-04-03T22:39:09.919Z,11.80
2019-04-03T22:41:40.950Z,10.43
2019-04-03T22:44:13.008Z,11.60
2019-04-03T22:46:46.649Z,11.53
2019-04-03T22:49:17.369Z,11.90
2019-04-03T22:51:47.985Z,11.60
2019-04-03T22:54:18.720Z,12.87
2019-04-03T22:56:49.409Z,11.50
2019-04-03T22:59:20.078Z,12.10
2019-04-03T23:01:50.534Z,12.80
2019-04-03T23:04:21.143Z,11.80
2019-04-03T23:06:51.656Z,11.70
2019-04-03T23:09:24.680Z,12.57
2019-04-03T23:11:54.575Z,11.60
2019-04-03T23:14:25.261Z,11.80
2019-04-03T23:16:55.816Z,12.33
2019-04-03T23:19:26.334Z,12.03
2019-04-03T23:21:57.083Z,11.90
2019-04-03T23:24:28.880Z,12.00
2019-04-03T23:27:02.389Z,12.43
2019-04-03T23:29:32.254Z,11.83
2019-04-03T23:32:02.759Z,11.67
2019-04-03T23:34:33.308Z,11.57
2019-04-03T23:37:03.897Z,11.77
2019-04-03T23:39:34.795Z,11.77
2019-04-03T23:42:06.875Z,11.90
2019-04-03T23:44:37.701Z,11.70
2019-04-03T23:47:09.439Z,12.67
2019-04-03T23:49:41.243Z,12.50
2019-04-03T23:52:11.944Z,12.07
2019-04-03T23:54:42.357Z,12.03
2019-04-03T23:57:13.067Z,11.97
2019-04-03T23:59:44.455Z,12.30
